createdAt,value
2016-06-22T05:37:29.198Z,5304
2016-06-22T05:37:54.743Z,5240
2016-06-22T05:38:53.677Z,5064
2016-06-22T05:40:08.677Z,4656
2016-06-22T05:41:54.215Z,3884
2016-06-22T05:43:55.948Z,3424
2016-06-22T05:44:53.847Z,3360
2016-06-22T05:45:55.566Z,3332
2016-06-22T05:46:54.608Z,3320
2016-06-22T05:47:54.422Z,3372
2016-06-22T05:48:55.251Z,3456
2016-06-22T05:49:55.173Z,3476
2016-06-22T05:50:54.331Z,3608
2016-06-22T05:52:09.534Z,3752
2016-06-22T05:52:55.927Z,3864
2016-06-22T05:53:54.829Z,4004
2016-06-22T05:55:09.829Z,4200
2016-06-22T05:55:54.486Z,4272
2016-06-22T05:56:56.150Z,4416
2016-06-22T05:57:55.322Z,4564
2016-06-22T05:59:09.976Z,5116
2016-06-22T05:59:54.549Z,5528
2016-06-22T06:00:54.312Z,6012
2016-06-22T06:01:54.507Z,6552
2016-06-22T06:02:55.720Z,6956
2016-06-22T06:03:54.657Z,7388
2016-06-22T06:04:54.891Z,7492
2016-06-22T06:05:55.078Z,7576
2016-06-22T06:06:55.047Z,7736
2016-06-22T06:07:55.811Z,7464
2016-06-22T06:08:55.151Z,7224
2016-06-22T06:09:54.352Z,7104
2016-06-22T06:10:54.271Z,6916
2016-06-22T06:11:55.175Z,6604
2016-06-22T06:12:55.792Z,6404
2016-06-22T06:14:09.816Z,6328
2016-06-22T06:14:56.110Z,6244
2016-06-22T06:15:55.296Z,6136
2016-06-22T06:16:55.803Z,5912
2016-06-22T06:17:56.862Z,5728
2016-06-22T06:19:09.355Z,5764
2016-06-22T06:19:54.979Z,5824
2016-06-22T06:21:08.825Z,5744
2016-06-22T06:21:55.595Z,5808
2016-06-22T06:23:10.057Z,5576
2016-06-22T06:24:24.646Z,5392
2016-06-22T06:24:54.686Z,5392
2016-06-22T06:25:54.618Z,5428
2016-06-22T06:26:55.826Z,5456
2016-06-22T06:27:56.601Z,5516
2016-06-22T06:28:54.728Z,5548
2016-06-22T06:30:54.856Z,5520
2016-06-22T06:31:56.027Z,5512
2016-06-22T06:32:54.880Z,5532
2016-06-22T06:33:55.531Z,5480
2016-06-22T06:35:09.694Z,5560
2016-06-22T06:35:55.621Z,5528
2016-06-22T06:36:55.751Z,5456
2016-06-22T06:38:11.061Z,5472
2016-06-22T06:38:55.964Z,5556
2016-06-22T06:39:55.394Z,5700
2016-06-22T06:40:56.295Z,5900
2016-06-22T06:41:54.753Z,6028
2016-06-22T06:43:55.751Z,5968
2016-06-22T06:45:55.165Z,5904
2016-06-22T06:47:10.382Z,5716
2016-06-22T06:47:54.869Z,5680
2016-06-22T06:49:10.604Z,5608
2016-06-22T06:50:55.393Z,5552
2016-06-22T06:51:55.735Z,5624
2016-06-22T06:52:54.448Z,5680
2016-06-22T06:54:55.173Z,5604
2016-06-22T06:56:09.910Z,5736
2016-06-22T06:56:54.883Z,5740
2016-06-22T06:57:56.419Z,5900
2016-06-22T06:58:54.720Z,6160
2016-06-22T06:59:54.221Z,6592
2016-06-22T07:00:54.021Z,6904
2016-06-22T07:01:54.726Z,7216
2016-06-22T07:02:55.322Z,7524
2016-06-22T07:03:56.954Z,8056
2016-06-22T07:04:55.280Z,8348
2016-06-22T07:05:55.573Z,8680
2016-06-22T07:06:55.687Z,8544
2016-06-22T07:07:54.341Z,8576
2016-06-22T07:08:54.961Z,8476
2016-06-22T07:09:55.714Z,8480
2016-06-22T07:10:55.249Z,8292
2016-06-22T07:11:56.092Z,8216
2016-06-22T07:13:09.969Z,8024
2016-06-22T07:13:55.360Z,7888
2016-06-22T07:15:10.116Z,7804
2016-06-22T07:15:55.114Z,7756
2016-06-22T07:16:54.228Z,7864
2016-06-22T07:18:09.128Z,7496
2016-06-22T07:18:55.733Z,7400
2016-06-22T07:20:55.955Z,6796
2016-06-22T07:22:24.843Z,6520
2016-06-22T07:22:55.995Z,6376
2016-06-22T07:23:55.793Z,6020
2016-06-22T07:24:55.419Z,5752
2016-06-22T07:25:56.109Z,5508
2016-06-22T07:26:56.684Z,5472
2016-06-22T07:27:55.255Z,5404
2016-06-22T07:29:09.530Z,5204
2016-06-22T07:30:55.165Z,5080
2016-06-22T07:32:10.130Z,5132
